createdAt,value
2018-07-03T00:00:04.874Z,57.80
2018-07-03T00:02:33.561Z,57.70
2018-07-03T00:05:02.217Z,58.00
2018-07-03T00:07:30.891Z,58.10
2018-07-03T00:09:59.548Z,57.90
2018-07-03T00:12:28.169Z,58.40
2018-07-03T00:14:56.996Z,59.20
2018-07-03T00:17:25.656Z,59.20
2018-07-03T00:19:54.308Z,59.20
2018-07-03T00:22:23.092Z,59.50
2018-07-03T00:24:51.735Z,60.80
2018-07-03T00:27:20.362Z,60.90
2018-07-03T00:29:48.971Z,61.20
2018-07-03T00:32:17.798Z,62.50
2018-07-03T00:34:46.395Z,61.70
2018-07-03T00:37:15.058Z,62.30
2018-07-03T00:39:43.702Z,61.50
2018-07-03T00:42:12.350Z,61.50
2018-07-03T00:44:40.965Z,61.50
2018-07-03T00:47:09.609Z,61.60
2018-07-03T00:49:38.302Z,61.70
2018-07-03T00:52:06.972Z,61.70
2018-07-03T00:54:35.585Z,61.70
2018-07-03T00:57:04.235Z,62.00
2018-07-03T00:59:32.855Z,61.80
2018-07-03T01:02:01.462Z,61.80
2018-07-03T01:04:30.128Z,62.10
2018-07-03T01:06:58.790Z,62.00
2018-07-03T01:09:27.389Z,62.50
2018-07-03T01:11:56.049Z,62.70
2018-07-03T01:14:24.653Z,62.90
2018-07-03T01:16:53.274Z,63.20
2018-07-03T01:19:21.950Z,63.10
2018-07-03T01:21:50.670Z,63.60
2018-07-03T01:24:19.326Z,63.70
2018-07-03T01:26:47.949Z,65.00
2018-07-03T01:29:16.555Z,67.30
2018-07-03T01:31:45.264Z,66.50
2018-07-03T01:34:14.300Z,67.40
2018-07-03T01:36:43.021Z,66.40
2018-07-03T01:39:11.668Z,66.50
2018-07-03T01:41:40.288Z,66.10
2018-07-03T01:44:08.933Z,66.10
2018-07-03T01:46:37.683Z,66.10
2018-07-03T01:49:06.345Z,66.20
2018-07-03T01:51:34.955Z,66.40
2018-07-03T01:54:03.575Z,66.60
2018-07-03T01:56:32.188Z,66.40
2018-07-03T01:59:00.823Z,66.60
2018-07-03T02:01:29.461Z,66.50
2018-07-03T02:03:58.109Z,66.80
2018-07-03T02:06:26.767Z,67.20
2018-07-03T02:08:55.439Z,67.20
2018-07-03T02:11:25.170Z,67.30
2018-07-03T02:13:54.067Z,67.30
2018-07-03T02:16:22.682Z,67.30
2018-07-03T02:18:51.300Z,68.70
2018-07-03T02:21:19.941Z,68.10
2018-07-03T02:23:48.799Z,68.10
2018-07-03T02:26:17.478Z,68.40
2018-07-03T02:28:46.137Z,68.30
2018-07-03T02:31:14.763Z,68.70
2018-07-03T02:33:43.385Z,68.60
2018-07-03T02:36:12.009Z,68.80
2018-07-03T02:38:40.616Z,69.00
2018-07-03T02:41:09.260Z,69.10
2018-07-03T02:43:37.971Z,69.10
2018-07-03T02:46:06.927Z,69.00
2018-07-03T02:48:35.683Z,69.30
2018-07-03T02:51:04.308Z,69.30
2018-07-03T02:53:32.972Z,70.10
2018-07-03T02:56:01.598Z,69.80
2018-07-03T02:58:30.208Z,70.00
2018-07-03T03:00:58.841Z,70.20
2018-07-03T03:03:27.521Z,70.20
2018-07-03T03:05:56.113Z,70.90
2018-07-03T03:08:25.909Z,71.00
2018-07-03T03:10:54.676Z,71.30
2018-07-03T03:13:23.325Z,71.00
2018-07-03T03:15:51.982Z,71.20
2018-07-03T03:18:20.592Z,71.20
2018-07-03T03:20:49.218Z,71.20
2018-07-03T03:23:17.819Z,71.70
2018-07-03T03:25:46.476Z,71.70
2018-07-03T03:28:15.733Z,71.80
2018-07-03T03:30:44.914Z,71.70
2018-07-03T03:33:13.546Z,72.00
2018-07-03T03:35:42.163Z,71.80
2018-07-03T03:38:10.934Z,72.70
2018-07-03T03:40:39.523Z,73.70
2018-07-03T03:43:08.129Z,73.70
2018-07-03T03:45:36.761Z,73.30
2018-07-03T03:48:05.503Z,73.90
2018-07-03T03:50:34.101Z,73.00
2018-07-03T03:53:02.726Z,73.20
2018-07-03T03:55:31.369Z,73.10
2018-07-03T03:57:59.998Z,72.70
2018-07-03T04:00:28.578Z,72.50
2018-07-03T04:02:57.180Z,73.10
2018-07-03T04:05:25.815Z,73.30
2018-07-03T04:07:54.484Z,73.50
2018-07-03T04:10:23.157Z,74.30
2018-07-03T04:12:51.770Z,74.40
2018-07-03T04:15:20.434Z,73.90
2018-07-03T04:17:49.041Z,74.40
2018-07-03T04:20:17.735Z,74.40
2018-07-03T04:22:46.422Z,74.30
2018-07-03T04:25:15.094Z,74.50
2018-07-03T04:27:43.712Z,74.20
2018-07-03T04:30:12.327Z,74.30
2018-07-03T04:32:40.956Z,74.10
2018-07-03T04:35:09.590Z,75.00
2018-07-03T04:37:38.199Z,75.30
2018-07-03T04:40:06.963Z,74.80
2018-07-03T04:42:35.554Z,75.20
2018-07-03T04:45:04.303Z,75.30
2018-07-03T04:47:32.909Z,75.20
2018-07-03T04:50:01.511Z,76.00
2018-07-03T04:52:30.093Z,75.70
2018-07-03T04:54:58.745Z,76.00
2018-07-03T04:57:27.510Z,76.20
2018-07-03T04:59:56.146Z,76.00
2018-07-03T05:02:24.745Z,76.00
2018-07-03T05:04:53.360Z,76.50
2018-07-03T05:07:21.987Z,76.40
2018-07-03T05:09:50.607Z,77.60
2018-07-03T05:12:19.220Z,76.90
2018-07-03T05:14:47.833Z,76.60
2018-07-03T05:17:16.460Z,75.90
2018-07-03T05:19:45.076Z,76.60
2018-07-03T05:22:13.713Z,77.30
2018-07-03T05:24:42.384Z,78.50
2018-07-03T05:27:11.028Z,77.10
2018-07-03T05:29:39.671Z,78.30
2018-07-03T05:32:08.365Z,77.10
2018-07-03T05:34:37.041Z,76.40
2018-07-03T05:37:05.762Z,76.60
2018-07-03T05:39:34.413Z,76.80
2018-07-03T05:42:03.101Z,75.90
2018-07-03T05:44:31.760Z,76.20
2018-07-03T05:47:00.398Z,75.70
2018-07-03T05:49:28.991Z,75.00
2018-07-03T05:51:58.226Z,74.80
2018-07-03T05:54:26.918Z,75.10
2018-07-03T05:56:55.582Z,74.40
2018-07-03T05:59:24.244Z,74.30
2018-07-03T06:01:52.874Z,73.60
2018-07-03T06:04:21.497Z,73.90
2018-07-03T06:06:50.180Z,74.90
2018-07-03T06:09:18.883Z,75.80
2018-07-03T06:11:47.462Z,73.90
2018-07-03T06:14:16.085Z,76.10
2018-07-03T06:16:44.701Z,75.20
2018-07-03T06:19:13.318Z,75.60
2018-07-03T06:21:42.016Z,75.30
2018-07-03T06:24:10.653Z,76.10
2018-07-03T06:26:39.338Z,75.90
2018-07-03T06:29:08.020Z,75.60
2018-07-03T06:31:36.630Z,74.80
2018-07-03T06:34:05.302Z,75.90
2018-07-03T06:36:34.404Z,75.00
2018-07-03T06:39:03.516Z,75.20
2018-07-03T06:41:32.112Z,74.50
2018-07-03T06:44:00.749Z,74.70
2018-07-03T06:46:29.358Z,74.60
2018-07-03T06:48:57.963Z,74.20
2018-07-03T06:51:26.564Z,73.20
2018-07-03T06:53:55.411Z,74.10
2018-07-03T06:56:24.082Z,73.60
2018-07-03T06:58:52.725Z,73.20
2018-07-03T07:01:21.415Z,73.40
2018-07-03T07:03:50.013Z,72.40
2018-07-03T07:06:18.654Z,71.70
2018-07-03T07:08:47.391Z,71.20
2018-07-03T07:11:15.965Z,72.10
2018-07-03T07:13:44.712Z,70.80
2018-07-03T07:16:13.352Z,70.70
2018-07-03T07:18:42.036Z,70.70
2018-07-03T07:21:10.694Z,70.30
2018-07-03T07:23:39.301Z,70.40
2018-07-03T07:26:07.904Z,69.40
2018-07-03T07:28:36.565Z,68.70
2018-07-03T07:31:05.343Z,68.00
2018-07-03T07:33:33.935Z,67.30
2018-07-03T07:36:02.562Z,67.40
2018-07-03T07:38:31.468Z,66.00
2018-07-03T07:41:00.073Z,67.20
2018-07-03T07:43:28.680Z,65.60
2018-07-03T07:45:57.315Z,66.20
2018-07-03T07:48:26.028Z,64.50
2018-07-03T07:50:54.629Z,63.70
2018-07-03T07:53:23.229Z,63.70
2018-07-03T07:55:51.865Z,64.50
2018-07-03T07:58:20.543Z,61.90
2018-07-03T08:00:49.187Z,63.10
2018-07-03T08:03:17.798Z,61.60
2018-07-03T08:05:46.420Z,63.60
2018-07-03T08:08:15.041Z,62.20
2018-07-03T08:10:43.687Z,61.60
2018-07-03T08:13:12.371Z,61.20
2018-07-03T08:15:40.956Z,60.00
2018-07-03T08:18:09.577Z,59.80
2018-07-03T08:20:38.195Z,61.00
2018-07-03T08:23:06.832Z,58.80
2018-07-03T08:25:35.468Z,60.60
2018-07-03T08:28:04.079Z,57.80
2018-07-03T08:30:32.689Z,56.80
2018-07-03T08:33:01.305Z,56.50
2018-07-03T08:35:29.927Z,54.80
2018-07-03T08:37:58.494Z,54.20
2018-07-03T08:40:27.344Z,53.70
2018-07-03T08:42:56.012Z,50.10
2018-07-03T08:45:24.577Z,50.30
2018-07-03T08:47:53.202Z,49.90
2018-07-03T08:50:21.817Z,47.70
2018-07-03T08:52:50.430Z,46.40
2018-07-03T08:55:19.097Z,46.70
2018-07-03T08:57:47.718Z,50.30
2018-07-03T09:00:16.330Z,48.70
2018-07-03T09:02:44.912Z,48.20
2018-07-03T09:05:13.695Z,43.40
2018-07-03T09:07:42.326Z,47.90
2018-07-03T09:10:10.931Z,44.50
2018-07-03T09:12:39.711Z,43.00
2018-07-03T09:15:09.017Z,42.20
2018-07-03T09:17:37.632Z,43.50
2018-07-03T09:20:06.330Z,41.00
2018-07-03T09:22:34.984Z,42.40
2018-07-03T09:25:03.661Z,40.90
2018-07-03T09:27:32.301Z,39.20
2018-07-03T09:30:00.904Z,40.90
2018-07-03T09:32:29.599Z,38.30
2018-07-03T09:34:58.237Z,41.10
2018-07-03T09:37:26.865Z,41.70
2018-07-03T09:39:55.508Z,37.20
2018-07-03T09:42:24.201Z,35.30
2018-07-03T09:44:52.841Z,37.30
2018-07-03T09:47:21.485Z,35.80
2018-07-03T09:49:50.073Z,33.90
2018-07-03T09:52:18.718Z,34.80
2018-07-03T09:54:47.347Z,38.40
2018-07-03T09:57:15.926Z,39.80
2018-07-03T09:59:44.594Z,37.30
2018-07-03T10:02:13.193Z,35.20
2018-07-03T10:04:41.780Z,34.10
2018-07-03T10:07:10.381Z,33.70
2018-07-03T10:09:38.982Z,32.90
2018-07-03T10:12:07.602Z,35.00
2018-07-03T10:14:36.181Z,33.10
2018-07-03T10:17:04.989Z,29.40
2018-07-03T10:19:33.578Z,29.70
2018-07-03T10:22:02.150Z,31.70
2018-07-03T10:24:30.762Z,33.70
2018-07-03T10:26:59.441Z,32.40
2018-07-03T10:29:28.109Z,35.30
2018-07-03T10:31:56.737Z,30.10
2018-07-03T10:34:25.483Z,31.30
2018-07-03T10:36:54.140Z,32.50
2018-07-03T10:39:22.797Z,28.10
2018-07-03T10:41:51.406Z,28.80
2018-07-03T10:44:20.029Z,29.90
2018-07-03T10:46:48.628Z,33.20
2018-07-03T10:49:17.263Z,31.50
2018-07-03T10:51:45.882Z,31.70
2018-07-03T10:54:14.509Z,32.90
2018-07-03T10:56:43.109Z,29.60
2018-07-03T10:59:11.736Z,29.00
2018-07-03T11:01:40.403Z,32.60
2018-07-03T11:04:09.006Z,27.70
2018-07-03T11:06:37.651Z,27.50
2018-07-03T11:09:09.256Z,26.10
2018-07-03T11:11:37.884Z,26.10
2018-07-03T11:14:06.724Z,28.20
2018-07-03T11:16:35.354Z,30.10
2018-07-03T11:19:04.017Z,28.30
2018-07-03T11:21:32.737Z,29.90
2018-07-03T11:24:01.668Z,29.40
2018-07-03T11:26:30.300Z,27.80
2018-07-03T11:28:58.944Z,26.30
2018-07-03T11:31:27.593Z,26.70
2018-07-03T11:33:56.202Z,28.00
2018-07-03T11:36:24.890Z,26.70
2018-07-03T11:38:53.509Z,27.40
2018-07-03T11:41:22.614Z,27.30
2018-07-03T11:43:51.325Z,27.40
2018-07-03T11:46:19.974Z,26.80
2018-07-03T11:48:48.588Z,25.50
2018-07-03T11:51:17.204Z,26.30
2018-07-03T11:53:46.426Z,23.80
2018-07-03T11:56:15.033Z,25.30
2018-07-03T11:58:43.662Z,25.40
2018-07-03T12:01:12.267Z,26.00
2018-07-03T12:03:40.941Z,24.70
2018-07-03T12:06:09.551Z,26.40
2018-07-03T12:08:38.138Z,25.30
2018-07-03T12:11:07.648Z,24.70
2018-07-03T12:13:36.313Z,25.60
2018-07-03T12:16:05.088Z,23.70
2018-07-03T12:18:38.911Z,25.70
2018-07-03T12:21:07.692Z,24.40
2018-07-03T12:23:36.399Z,25.40
2018-07-03T12:26:05.102Z,22.80
2018-07-03T12:28:33.775Z,24.70
2018-07-03T12:31:02.437Z,27.20
2018-07-03T12:33:31.286Z,25.80
2018-07-03T12:35:59.920Z,23.60
2018-07-03T12:38:28.533Z,24.80
2018-07-03T12:40:57.160Z,25.90
2018-07-03T12:43:26.018Z,25.30
2018-07-03T12:45:54.614Z,24.00
2018-07-03T12:48:23.283Z,23.10
2018-07-03T12:50:51.952Z,25.10
2018-07-03T12:53:20.658Z,23.30
2018-07-03T12:55:49.286Z,23.60
2018-07-03T12:58:17.937Z,24.70
2018-07-03T13:00:46.606Z,23.90
2018-07-03T13:03:15.233Z,24.10
2018-07-03T13:05:43.843Z,23.70
2018-07-03T13:08:12.540Z,20.40
2018-07-03T13:10:41.116Z,23.50
2018-07-03T13:13:09.802Z,22.30
2018-07-03T13:15:38.461Z,25.10
2018-07-03T13:18:12.421Z,23.60
2018-07-03T13:20:41.362Z,23.10
2018-07-03T13:23:13.065Z,21.90
2018-07-03T13:25:41.711Z,21.30
2018-07-03T13:28:10.602Z,21.20
2018-07-03T13:30:39.309Z,24.10
2018-07-03T13:33:08.073Z,20.50
2018-07-03T13:35:36.792Z,21.60
2018-07-03T13:38:05.801Z,21.50
2018-07-03T13:40:34.543Z,24.60
2018-07-03T13:43:03.175Z,23.10
2018-07-03T13:45:32.177Z,23.80
2018-07-03T13:48:00.800Z,23.00
2018-07-03T13:50:29.401Z,22.30
2018-07-03T13:52:57.996Z,23.40
2018-07-03T13:55:27.512Z,22.00
2018-07-03T13:57:59.888Z,24.50
2018-07-03T14:00:28.521Z,23.10
2018-07-03T14:02:57.350Z,23.60
2018-07-03T14:05:25.957Z,21.00
2018-07-03T14:07:54.726Z,20.90
2018-07-03T14:10:23.470Z,20.00
2018-07-03T14:12:52.065Z,21.20
2018-07-03T14:15:20.674Z,22.60
2018-07-03T14:17:50.108Z,23.10
2018-07-03T14:20:18.726Z,23.20
2018-07-03T14:22:47.363Z,23.20
2018-07-03T14:25:16.023Z,22.20
2018-07-03T14:27:44.635Z,20.90
2018-07-03T14:30:13.314Z,21.90
2018-07-03T14:32:44.317Z,22.90
2018-07-03T14:35:14.566Z,20.40
2018-07-03T14:37:43.298Z,20.10
2018-07-03T14:40:16.743Z,21.00
2018-07-03T14:42:49.268Z,23.10
2018-07-03T14:45:21.495Z,23.00
2018-07-03T14:47:57.351Z,23.00
2018-07-03T14:50:27.004Z,24.40
2018-07-03T14:52:55.800Z,24.20
2018-07-03T14:55:24.512Z,24.40
2018-07-03T14:57:53.419Z,23.50
2018-07-03T15:00:23.161Z,22.40
2018-07-03T15:02:51.934Z,21.70
2018-07-03T15:05:20.814Z,21.60
2018-07-03T15:07:49.610Z,24.70
2018-07-03T15:10:18.506Z,23.40
2018-07-03T15:12:47.241Z,23.00
2018-07-03T15:15:15.900Z,23.20
2018-07-03T15:17:44.524Z,23.40
2018-07-03T15:20:13.251Z,22.70
2018-07-03T15:22:41.882Z,21.90
2018-07-03T15:25:10.597Z,20.70
2018-07-03T15:27:39.223Z,20.70
2018-07-03T15:30:07.836Z,22.90
2018-07-03T15:32:36.561Z,22.00
2018-07-03T15:35:05.197Z,21.10
2018-07-03T15:37:33.864Z,22.30
2018-07-03T15:40:02.507Z,23.40
2018-07-03T15:42:31.129Z,20.70
2018-07-03T15:45:07.693Z,22.50
2018-07-03T15:47:36.326Z,23.90
2018-07-03T15:50:06.069Z,22.00
2018-07-03T15:52:34.736Z,21.80
2018-07-03T15:55:03.365Z,22.50
2018-07-03T15:57:32.021Z,23.30
2018-07-03T16:00:00.647Z,21.00
2018-07-03T16:02:29.289Z,21.90
2018-07-03T16:05:11.292Z,21.90
2018-07-03T16:09:47.350Z,21.10
2018-07-03T16:12:16.029Z,21.60
2018-07-03T16:14:45.886Z,21.40
2018-07-03T16:17:14.539Z,21.20
2018-07-03T16:19:48.437Z,21.30
2018-07-03T16:22:17.056Z,22.10
2018-07-03T16:24:45.690Z,20.90
2018-07-03T16:27:14.329Z,22.20
2018-07-03T16:29:43.010Z,22.20
2018-07-03T16:32:11.628Z,22.70
2018-07-03T16:34:40.289Z,22.00
2018-07-03T16:37:08.895Z,21.60
2018-07-03T16:39:37.566Z,21.10
2018-07-03T16:42:06.230Z,22.40
2018-07-03T16:44:34.985Z,21.80
2018-07-03T16:47:04.181Z,21.80
2018-07-03T16:49:32.816Z,21.70
2018-07-03T16:52:01.402Z,21.00
2018-07-03T16:54:30.013Z,23.10
2018-07-03T16:56:58.663Z,22.80
2018-07-03T16:59:27.340Z,22.90
2018-07-03T17:01:56.017Z,23.00
2018-07-03T17:04:24.631Z,22.60
2018-07-03T17:06:53.573Z,22.20
2018-07-03T17:09:22.201Z,23.20
2018-07-03T17:11:50.828Z,23.10
2018-07-03T17:14:19.605Z,23.00
2018-07-03T17:16:48.529Z,23.20
2018-07-03T17:19:22.401Z,23.30
2018-07-03T17:21:52.529Z,22.60
2018-07-03T17:24:22.304Z,22.90
2018-07-03T17:26:51.359Z,24.20
2018-07-03T17:29:20.306Z,24.60
2018-07-03T17:31:49.191Z,24.20
2018-07-03T17:34:17.903Z,24.60
2018-07-03T17:36:46.890Z,24.70
2018-07-03T17:39:18.798Z,24.60
2018-07-03T17:41:59.996Z,24.70
2018-07-03T17:46:42.083Z,25.20
2018-07-03T17:49:11.291Z,25.80
2018-07-03T17:51:42.808Z,24.90
2018-07-03T17:54:11.725Z,25.00
2018-07-03T17:56:41.240Z,25.30
2018-07-03T17:59:10.189Z,25.80
2018-07-03T18:01:38.938Z,25.90
2018-07-03T18:04:07.799Z,25.50
2018-07-03T18:06:36.572Z,25.70
2018-07-03T18:09:08.794Z,26.50
2018-07-03T18:11:37.463Z,26.40
2018-07-03T18:14:07.110Z,27.60
2018-07-03T18:16:35.944Z,27.50
2018-07-03T18:19:10.036Z,28.00
2018-07-03T18:21:38.689Z,28.10
2018-07-03T18:24:07.344Z,28.60
2018-07-03T18:26:36.100Z,28.90
2018-07-03T18:29:05.161Z,29.50
2018-07-03T18:31:33.806Z,29.90
2018-07-03T18:34:02.429Z,30.00
2018-07-03T18:36:31.092Z,30.40
2018-07-03T18:38:59.721Z,30.70
2018-07-03T18:41:28.412Z,32.20
2018-07-03T18:43:57.029Z,32.00
2018-07-03T18:46:25.636Z,32.00
2018-07-03T18:48:54.299Z,32.80
2018-07-03T18:51:22.952Z,33.30
2018-07-03T18:53:51.629Z,33.20
2018-07-03T18:56:20.309Z,33.30
2018-07-03T18:58:48.946Z,33.30
2018-07-03T19:01:17.679Z,33.20
2018-07-03T19:03:46.518Z,33.70
2018-07-03T19:06:15.128Z,34.60
2018-07-03T19:08:43.751Z,34.30
2018-07-03T19:11:12.462Z,34.20
2018-07-03T19:13:41.190Z,34.90
2018-07-03T19:16:09.910Z,35.20
2018-07-03T19:18:38.627Z,34.70
2018-07-03T19:21:07.415Z,35.80
2018-07-03T19:23:36.029Z,35.90
2018-07-03T19:26:04.709Z,36.80
2018-07-03T19:28:33.389Z,36.70
2018-07-03T19:31:02.033Z,37.40
2018-07-03T19:33:30.662Z,37.50
2018-07-03T19:35:59.344Z,37.40
2018-07-03T19:38:27.928Z,37.90
2018-07-03T19:40:56.542Z,38.10
2018-07-03T19:43:27.612Z,38.60
2018-07-03T19:45:57.993Z,38.30
2018-07-03T19:48:26.847Z,39.10
2018-07-03T19:50:55.681Z,39.10
2018-07-03T19:53:24.396Z,39.50
2018-07-03T19:55:54.335Z,39.30
2018-07-03T19:58:23.202Z,39.20
2018-07-03T20:00:52.919Z,39.40
2018-07-03T20:03:21.695Z,40.00
2018-07-03T20:05:50.382Z,40.20
2018-07-03T20:08:19.150Z,40.50
2018-07-03T20:10:48.451Z,41.00
2018-07-03T20:13:18.074Z,41.30
2018-07-03T20:15:47.348Z,41.50
2018-07-03T20:18:16.615Z,41.90
2018-07-03T20:20:45.991Z,42.30
2018-07-03T20:23:14.650Z,42.90
2018-07-03T20:25:43.414Z,43.00
2018-07-03T20:28:13.675Z,43.40
2018-07-03T20:30:42.499Z,44.00
2018-07-03T20:33:11.205Z,45.00
2018-07-03T20:35:39.863Z,45.80
2018-07-03T20:38:08.575Z,46.50
2018-07-03T20:41:02.498Z,47.00
2018-07-03T20:43:32.488Z,47.10
2018-07-03T20:46:01.093Z,48.10
2018-07-03T20:48:30.673Z,48.50
2018-07-03T20:50:59.805Z,49.20
2018-07-03T20:53:28.434Z,49.30
2018-07-03T20:55:57.163Z,50.00
2018-07-03T20:58:26.709Z,49.80
2018-07-03T21:00:55.338Z,50.50
2018-07-03T21:03:24.041Z,51.20
2018-07-03T21:05:52.763Z,51.20
2018-07-03T21:08:21.300Z,51.50
2018-07-03T21:10:49.927Z,51.50
2018-07-03T21:13:18.651Z,52.20
2018-07-03T21:15:47.439Z,52.50
2018-07-03T21:18:16.031Z,52.90
2018-07-03T21:20:45.506Z,53.20
2018-07-03T21:23:14.892Z,53.70
2018-07-03T21:25:44.141Z,53.90
2018-07-03T21:28:12.762Z,53.90
2018-07-03T21:30:41.391Z,54.30
2018-07-03T21:33:09.996Z,54.80
2018-07-03T21:35:38.712Z,54.80
2018-07-03T21:38:07.622Z,55.10
2018-07-03T21:40:36.238Z,55.30
2018-07-03T21:43:04.828Z,55.20
2018-07-03T21:45:33.436Z,55.50
2018-07-03T21:48:02.077Z,56.00
2018-07-03T21:50:30.964Z,55.70
2018-07-03T21:52:59.552Z,56.60
2018-07-03T21:55:28.138Z,56.60
2018-07-03T21:57:56.776Z,56.60
2018-07-03T22:00:34.265Z,57.00
2018-07-03T22:03:03.477Z,57.00
2018-07-03T22:05:32.095Z,57.00
2018-07-03T22:08:00.711Z,57.10
2018-07-03T22:10:29.303Z,57.30
2018-07-03T22:12:57.934Z,57.50
2018-07-03T22:15:26.534Z,57.50
2018-07-03T22:17:55.257Z,57.60
2018-07-03T22:20:23.881Z,58.40
2018-07-03T22:22:52.695Z,58.20
2018-07-03T22:25:21.338Z,58.10
2018-07-03T22:27:50.138Z,58.40
2018-07-03T22:30:18.748Z,59.00
2018-07-03T22:32:47.365Z,59.20
2018-07-03T22:35:15.997Z,59.30
2018-07-03T22:37:44.614Z,59.70
2018-07-03T22:40:13.308Z,59.90
2018-07-03T22:42:41.965Z,60.00
2018-07-03T22:45:10.561Z,60.30
2018-07-03T22:47:39.160Z,60.50
2018-07-03T22:50:07.806Z,60.90
2018-07-03T22:52:36.415Z,61.00
2018-07-03T22:55:05.033Z,61.00
2018-07-03T22:57:33.656Z,61.20
2018-07-03T23:00:02.387Z,61.10
2018-07-03T23:02:30.983Z,61.50
2018-07-03T23:04:59.610Z,61.90
2018-07-03T23:07:28.254Z,62.00
2018-07-03T23:09:56.874Z,62.60
2018-07-03T23:12:25.576Z,62.70
2018-07-03T23:14:54.204Z,63.00
2018-07-03T23:17:22.811Z,63.10
2018-07-03T23:19:51.405Z,63.40
2018-07-03T23:22:19.999Z,63.50
2018-07-03T23:24:48.588Z,64.40
2018-07-03T23:27:17.250Z,64.00
2018-07-03T23:29:45.835Z,64.10
2018-07-03T23:32:14.477Z,64.50
2018-07-03T23:34:43.066Z,64.90
2018-07-03T23:37:11.670Z,65.20
2018-07-03T23:39:40.254Z,65.60
2018-07-03T23:42:08.847Z,65.70
2018-07-03T23:44:37.490Z,65.90
2018-07-03T23:47:17.211Z,66.10
2018-07-03T23:49:56.861Z,66.20
2018-07-03T23:52:37.561Z,66.60
2018-07-03T23:55:17.306Z,66.90
2018-07-03T23:57:56.975Z,66.90
